Time;durP1;ratioP1;P1;durP2;ratioP2;P2;SDS_P1;SDS_P2;PMS_P1;PMS_P2;Temp;Humidity;BMP_temperature;BMP_pressure;BME280_temperature;BME280_humidity;BME280_pressure;Samples;Min_cycle;Max_cycle;Signal;HPM_P1;HPM_P2
2022/03/02 00:00:45;;;;;;;14.85;8.63;;;2.20;1.00;;;;;;5054756;28;20517;-74
2022/03/02 00:03:11;;;;;;;10.88;8.02;;;2.20;1.00;;;;;;5054883;28;20651;-74
2022/03/02 00:05:37;;;;;;;18.13;8.70;;;2.10;1.00;;;;;;5055504;28;20164;-73
2022/03/02 00:08:04;;;;;;;16.15;8.07;;;2.00;1.00;;;;;;5060580;28;20225;-74
2022/03/02 00:10:30;;;;;;;13.60;8.75;;;1.90;1.00;;;;;;5063263;28;20637;-74
2022/03/02 00:12:56;;;;;;;17.10;8.23;;;1.90;1.00;;;;;;5057266;28;20184;-74
2022/03/02 00:15:27;;;;;;;14.07;8.30;;;1.70;1.00;;;;;;5061071;28;20475;-73
2022/03/02 00:17:53;;;;;;;14.85;8.20;;;1.60;1.00;;;;;;5054697;28;20171;-74
2022/03/02 00:20:19;;;;;;;15.53;8.50;;;1.60;1.00;;;;;;5051503;28;20258;-74
2022/03/02 00:22:45;;;;;;;13.93;9.10;;;1.60;1.00;;;;;;5058404;28;20184;-74
2022/03/02 00:25:15;;;;;;;18.33;10.00;;;1.50;1.00;;;;;;5065648;28;20596;-74
2022/03/02 00:27:41;;;;;;;14.13;8.85;;;1.30;1.00;;;;;;5068613;28;20620;-74
2022/03/02 00:30:15;;;;;;;14.00;8.10;;;1.20;1.00;;;;;;5054184;28;20230;-74
2022/03/02 00:32:45;;;;;;;11.23;7.68;;;1.20;1.00;;;;;;5054658;28;20516;-74
2022/03/02 00:35:11;;;;;;;16.77;8.80;;;1.10;1.00;;;;;;5059223;28;20619;-74
2022/03/02 00:37:37;;;;;;;15.60;8.20;;;1.10;1.00;;;;;;5054214;28;20203;-74
2022/03/02 00:40:03;;;;;;;14.13;8.15;;;1.00;1.00;;;;;;5053999;28;20198;-74
2022/03/02 00:42:39;;;;;;;14.05;8.60;;;0.90;1.00;;;;;;5054146;28;20238;-74
2022/03/02 00:45:10;;;;;;;13.95;7.90;;;0.90;1.00;;;;;;5067601;28;20544;-74
2022/03/02 00:47:36;;;;;;;15.02;8.05;;;0.80;1.00;;;;;;5054488;28;20176;-74
2022/03/02 00:50:03;;;;;;;16.63;8.83;;;0.80;1.00;;;;;;5056042;28;20646;-75
2022/03/02 00:52:29;;;;;;;15.98;7.43;;;0.70;1.00;;;;;;5049738;28;20409;-74
2022/03/02 00:54:58;;;;;;;11.90;7.67;;;;;;;;;;5067755;28;20573;-74
2022/03/02 00:57:23;;;;;;;18.17;8.90;;;0.60;1.00;;;;;;5053896;28;20188;-74
2022/03/02 00:59:49;;;;;;;15.50;8.63;;;0.60;1.00;;;;;;5053718;28;21712;-74
2022/03/02 01:02:15;;;;;;;15.70;8.70;;;0.50;1.00;;;;;;5061427;28;20453;-74
2022/03/02 01:04:41;;;;;;;15.50;8.10;;;0.40;1.00;;;;;;5053990;28;20506;-74
2022/03/02 01:07:09;;;;;;;17.73;7.77;;;0.40;1.00;;;;;;5052573;28;20469;-74
2022/03/02 01:09:35;;;;;;;13.35;7.70;;;0.40;1.00;;;;;;5053698;28;20175;-74
2022/03/02 01:12:04;;;;;;;15.10;8.70;;;0.30;1.00;;;;;;5053534;28;20194;-74
2022/03/02 01:14:29;;;;;;;16.65;8.73;;;0.30;1.00;;;;;;5053750;28;20532;-74
2022/03/02 01:16:57;;;;;;;14.93;8.43;;;0.30;1.00;;;;;;5064444;28;20183;-74
2022/03/02 01:19:23;;;;;;;12.98;7.85;;;0.30;1.00;;;;;;5055342;28;20933;-74
2022/03/02 01:21:49;;;;;;;19.43;8.97;;;0.20;1.00;;;;;;5064157;28;20206;-74
2022/03/02 01:24:15;;;;;;;14.90;8.63;;;0.20;1.00;;;;;;5065713;28;20476;-73
2022/03/02 01:26:46;;;;;;;15.10;8.60;;;0.20;1.00;;;;;;5053620;28;20183;-74
2022/03/02 01:29:23;;;;;;;15.20;7.20;;;0.20;1.00;;;;;;5059440;28;20186;-74
2022/03/02 01:31:51;;;;;;;20.05;8.95;;;0.10;1.00;;;;;;5053647;28;20167;-73
2022/03/02 01:34:17;;;;;;;15.98;8.90;;;0.10;1.00;;;;;;5053328;28;20171;-74
2022/03/02 01:36:43;;;;;;;14.13;7.60;;;0.10;1.00;;;;;;5053770;28;20566;-74
2022/03/02 01:39:08;;;;;;;14.50;8.33;;;0.10;1.00;;;;;;5056532;28;20238;-74
2022/03/02 01:41:39;;;;;;;12.33;7.67;;;0.10;1.00;;;;;;5054704;28;20199;-74
2022/03/02 01:44:09;;;;;;;14.63;8.10;;;0.00;1.00;;;;;;5053384;28;20202;-73
2022/03/02 01:46:40;;;;;;;12.30;7.47;;;0.00;1.00;;;;;;5053124;28;20252;-74
2022/03/02 01:49:06;;;;;;;11.90;8.40;;;0.00;1.00;;;;;;5053753;28;20179;-75
2022/03/02 01:51:32;;;;;;;14.85;8.75;;;0.00;1.00;;;;;;5056058;28;20529;-75
2022/03/02 01:53:58;;;;;;;15.97;8.40;;;-0.10;1.00;;;;;;5069590;28;20171;-74
2022/03/02 01:56:34;;;;;;;14.37;8.10;;;-0.10;1.00;;;;;;5091005;28;20503;-74
2022/03/02 01:59:00;;;;;;;13.25;8.65;;;-0.10;1.00;;;;;;5061943;28;20475;-74
2022/03/02 02:01:28;;;;;;;16.60;8.47;;;-0.10;1.00;;;;;;5056808;28;20188;-74
2022/03/02 02:03:53;;;;;;;13.68;7.80;;;-0.20;1.00;;;;;;5057631;28;20450;-74
2022/03/02 02:06:19;;;;;;;11.17;7.47;;;-0.20;1.00;;;;;;5063581;28;20228;-73
2022/03/02 02:08:45;;;;;;;13.00;7.90;;;-0.20;1.00;;;;;;5055667;28;20437;-74
2022/03/02 02:11:21;;;;;;;14.38;8.40;;;-0.30;1.00;;;;;;5050472;28;20418;-74
2022/03/02 02:13:52;;;;;;;18.45;8.10;;;-0.30;1.00;;;;;;5067489;28;20658;-74
2022/03/02 02:16:20;;;;;;;14.48;8.25;;;-0.30;1.00;;;;;;5057684;28;20183;-74
2022/03/02 02:18:46;;;;;;;15.50;8.90;;;-0.30;1.00;;;;;;5057321;28;20238;-74
2022/03/02 02:21:12;;;;;;;14.53;8.10;;;-0.30;1.00;;;;;;5056897;28;20184;-74
2022/03/02 02:23:45;;;;;;;14.97;7.80;;;-0.30;1.00;;;;;;5056934;28;20208;-74
2022/03/02 02:26:11;;;;;;;11.48;7.47;;;-0.30;1.00;;;;;;5042667;28;20410;-74
2022/03/02 02:28:37;;;;;;;11.10;7.90;;;-0.40;1.00;;;;;;5058593;28;20183;-74
2022/03/02 02:31:04;;;;;;;15.67;8.80;;;-0.40;1.00;;;;;;5069903;28;20409;-74
2022/03/02 02:33:33;;;;;;;13.18;7.97;;;-0.40;1.00;;;;;;5056891;28;20449;-74
2022/03/02 02:36:03;;;;;;;13.00;8.35;;;-0.40;1.00;;;;;;5064317;28;20265;-74
2022/03/02 02:38:33;;;;;;;19.38;8.68;;;-0.40;1.00;;;;;;5061556;28;20171;-74
2022/03/02 02:40:59;;;;;;;15.60;8.70;;;-0.40;1.00;;;;;;5056604;28;20186;-74
2022/03/02 02:43:33;;;;;;;16.53;8.30;;;-0.40;1.00;;;;;;5059341;28;20203;-74
2022/03/02 02:46:01;;;;;;;13.02;8.57;;;-0.40;1.00;;;;;;5056358;28;20402;-74
2022/03/02 02:48:27;;;;;;;16.35;7.57;;;-0.40;1.00;;;;;;5058200;28;20180;-74
2022/03/02 02:50:57;;;;;;;13.50;8.00;;;-0.40;1.00;;;;;;5056390;28;20551;-74
2022/03/02 02:53:27;;;;;;;11.60;7.63;;;-0.40;1.00;;;;;;5060168;28;20179;-74
2022/03/02 02:55:54;;;;;;;16.33;9.20;;;-0.40;1.00;;;;;;5066105;28;20554;-74
2022/03/02 02:58:19;;;;;;;14.48;8.63;;;-0.40;1.00;;;;;;5062643;28;20179;-74
2022/03/02 03:00:48;;;;;;;13.97;8.13;;;-0.40;1.00;;;;;;5075636;28;20182;-74
2022/03/02 03:03:16;;;;;;;13.70;7.90;;;-0.30;1.00;;;;;;5057759;28;20461;-74
2022/03/02 03:05:52;;;;;;;12.02;7.20;;;-0.30;1.00;;;;;;5056284;28;20168;-74
2022/03/02 03:08:18;;;;;;;16.00;8.20;;;-0.30;1.00;;;;;;5056055;28;20159;-74
2022/03/02 03:10:45;;;;;;;15.18;7.97;;;-0.30;1.00;;;;;;5055994;28;20206;-74
2022/03/02 03:13:21;;;;;;;15.23;8.25;;;-0.20;1.00;;;;;;5053643;28;20190;-74
2022/03/02 03:15:52;;;;;;;14.38;8.73;;;-0.20;1.00;;;;;;5070399;28;20643;-74
2022/03/02 03:18:21;;;;;;;13.30;8.43;;;-0.20;1.00;;;;;;5067784;28;20171;-74
2022/03/02 03:20:51;;;;;;;12.93;7.22;;;-0.10;1.00;;;;;;5047987;28;20172;-74
2022/03/02 03:23:17;;;;;;;10.10;7.70;;;-0.10;1.00;;;;;;5055681;28;20241;-73
2022/03/02 03:25:45;;;;;;;12.93;8.40;;;0.00;1.00;;;;;;5055621;28;20597;-74
2022/03/02 03:28:15;;;;;;;13.80;8.55;;;0.00;1.00;;;;;;5055694;28;20180;-74
2022/03/02 03:30:41;;;;;;;17.63;8.20;;;0.00;1.00;;;;;;5063444;28;20179;-74
2022/03/02 03:33:07;;;;;;;11.43;7.37;;;1.10;1.00;;;;;;5068400;28;20179;-74
2022/03/02 03:35:34;;;;;;;12.03;7.87;;;0.10;1.00;;;;;;5062198;28;20576;-74
2022/03/02 03:38:00;;;;;;;13.93;8.70;;;0.30;1.00;;;;;;5055267;28;20211;-74
2022/03/02 03:40:25;;;;;;;12.30;7.93;;;0.20;1.00;;;;;;5055206;28;20179;-74
2022/03/02 03:42:52;;;;;;;11.40;7.43;;;1.20;1.00;;;;;;5055297;28;20957;-74
2022/03/02 03:45:21;;;;;;;14.07;7.78;;;0.40;1.00;;;;;;5064232;28;20182;-74
2022/03/02 03:47:53;;;;;;;13.48;7.80;;;0.50;1.00;;;;;;5073195;28;20233;-74
2022/03/02 03:50:19;;;;;;;13.27;8.50;;;0.60;1.00;;;;;;5055560;28;20164;-74
2022/03/02 03:52:45;;;;;;;14.57;8.13;;;0.60;1.00;;;;;;5057564;28;20183;-74
2022/03/02 03:55:13;;;;;;;13.32;8.52;;;0.70;1.00;;;;;;5053935;28;20227;-74
2022/03/02 03:57:40;;;;;;;12.23;8.20;;;0.70;1.00;;;;;;5053696;28;20282;-74
2022/03/02 04:00:13;;;;;;;12.20;8.10;;;0.70;1.00;;;;;;5054923;28;20179;-74
2022/03/02 04:02:39;;;;;;;13.50;8.63;;;0.80;1.00;;;;;;5067012;28;20208;-74
2022/03/02 04:05:06;;;;;;;12.65;7.65;;;0.70;1.00;;;;;;5058858;28;20171;-75
2022/03/02 04:07:31;;;;;;;13.18;8.05;;;0.80;1.00;;;;;;5060442;28;20186;-74
2022/03/02 04:10:10;;;;;;;13.07;7.53;;;0.80;1.00;;;;;;5054918;28;20168;-74
2022/03/02 04:12:46;;;;;;;14.80;7.57;;;0.80;1.00;;;;;;5066737;28;20182;-74
2022/03/02 04:15:15;;;;;;;9.98;6.85;;;0.80;1.00;;;;;;5061564;28;20205;-74
2022/03/02 04:17:41;;;;;;;13.93;8.43;;;1.90;1.00;;;;;;5059610;28;20183;-74
2022/03/02 04:20:10;;;;;;;15.65;8.38;;;0.90;1.00;;;;;;5041687;28;20180;-74
2022/03/02 04:22:36;;;;;;;13.88;7.63;;;0.90;1.00;;;;;;5054205;28;20234;-74
2022/03/02 04:25:02;;;;;;;9.83;6.73;;;0.90;1.00;;;;;;5067933;28;20190;-74
2022/03/02 04:27:27;;;;;;;11.95;7.60;;;1.10;1.00;;;;;;5063014;28;20171;-74
2022/03/02 04:30:05;;;;;;;15.03;7.97;;;1.00;1.00;;;;;;5059562;28;20187;-74
2022/03/02 04:32:30;;;;;;;11.68;7.78;;;1.10;1.00;;;;;;5064175;28;20185;-74
2022/03/02 04:34:57;;;;;;;14.07;8.07;;;1.20;1.00;;;;;;5057818;28;20175;-74
2022/03/02 04:37:23;;;;;;;12.18;8.30;;;1.20;1.00;;;;;;5054337;28;20180;-74
2022/03/02 04:39:51;;;;;;;12.80;8.23;;;1.30;1.00;;;;;;5054072;28;20187;-74
2022/03/02 04:42:27;;;;;;;14.13;8.23;;;1.30;1.00;;;;;;5054064;28;20203;-75
2022/03/02 04:44:58;;;;;;;12.18;7.55;;;1.40;1.00;;;;;;5065941;28;20236;-74
2022/03/02 04:47:27;;;;;;;13.18;7.57;;;1.40;1.00;;;;;;5054512;28;20172;-74
2022/03/02 04:49:58;;;;;;;13.77;8.20;;;1.40;1.00;;;;;;5060339;28;20190;-74
2022/03/02 04:52:23;;;;;;;13.30;7.57;;;1.50;1.00;;;;;;5060756;28;20172;-74
2022/03/02 04:55:07;;;;;;;11.63;7.53;;;1.60;1.00;;;;;;5049747;28;20191;-74
2022/03/02 04:57:45;;;;;;;11.20;6.95;;;1.60;1.00;;;;;;5055897;28;20217;-74
2022/03/02 05:00:19;;;;;;;14.88;7.50;;;1.60;1.00;;;;;;5064409;28;20552;-74
2022/03/02 05:02:52;;;;;;;12.82;7.55;;;1.70;1.00;;;;;;5058833;28;20205;-74
2022/03/02 05:05:23;;;;;;;13.73;7.70;;;1.70;1.00;;;;;;5064380;28;20189;-74
2022/03/02 05:07:49;;;;;;;11.90;7.55;;;1.70;1.00;;;;;;5067413;28;20523;-74
2022/03/02 05:10:17;;;;;;;16.00;7.80;;;1.80;1.00;;;;;;5067059;28;20187;-74
2022/03/02 05:12:46;;;;;;;14.05;7.30;;;1.90;1.00;;;;;;5063689;28;20202;-74
2022/03/02 05:15:17;;;;;;;18.13;8.05;;;1.90;1.00;;;;;;5068620;28;20270;-73
2022/03/02 05:17:44;;;;;;;18.60;7.90;;;1.90;1.00;;;;;;5053640;28;20179;-74
2022/03/02 05:20:33;;;;;;;10.75;7.35;;;1.90;1.00;;;;;;5055790;28;20202;-74
2022/03/02 05:22:59;;;;;;;11.80;7.65;;;2.00;1.00;;;;;;5061758;28;20195;-74
2022/03/02 05:25:34;;;;;;;11.30;7.40;;;1.90;1.00;;;;;;5067385;28;20515;-74
2022/03/02 05:28:09;;;;;;;13.10;7.00;;;2.00;1.00;;;;;;5063701;28;20196;-74
2022/03/02 05:30:35;;;;;;;11.25;7.40;;;2.00;1.00;;;;;;5048647;28;20687;-74
2022/03/02 05:33:04;;;;;;;12.43;7.20;;;2.10;1.00;;;;;;5060049;28;20262;-74
2022/03/02 05:35:33;;;;;;;14.55;7.60;;;2.00;1.00;;;;;;5074141;28;20156;-74
2022/03/02 05:37:59;;;;;;;10.38;7.30;;;2.10;1.00;;;;;;5059989;28;20182;-74
2022/03/02 05:40:25;;;;;;;10.63;6.93;;;2.00;1.00;;;;;;5065410;28;20563;-74
2022/03/02 05:42:53;;;;;;;11.20;7.17;;;2.00;1.00;;;;;;5052696;28;20202;-74
2022/03/02 05:45:19;;;;;;;12.68;7.47;;;2.10;1.00;;;;;;5060823;28;20163;-74
2022/03/02 05:48:09;;;;;;;13.80;7.37;;;2.10;1.00;;;;;;5069342;28;20186;-74
2022/03/02 05:50:35;;;;;;;12.80;7.38;;;2.10;1.00;;;;;;5064947;28;20428;-74
2022/03/02 05:53:00;;;;;;;13.60;7.30;;;2.20;1.00;;;;;;5061819;28;20246;-73
2022/03/02 05:55:27;;;;;;;11.73;7.20;;;2.20;1.00;;;;;;5051871;28;20265;-74
2022/03/02 05:58:03;;;;;;;13.02;7.65;;;2.30;1.00;;;;;;5066868;28;20563;-74
2022/03/02 06:00:41;;;;;;;10.35;7.18;;;2.30;1.00;;;;;;5059453;28;20533;-74
2022/03/02 06:03:09;;;;;;;12.98;7.43;;;2.40;1.00;;;;;;5049226;28;20257;-74
2022/03/02 06:05:40;;;;;;;14.25;7.97;;;2.40;1.00;;;;;;5066986;28;20217;-74
2022/03/02 06:08:10;;;;;;;13.80;8.20;;;2.40;1.00;;;;;;5051723;28;20771;-74
2022/03/02 06:10:51;;;;;;;12.80;7.50;;;2.50;1.00;;;;;;5052839;28;20200;-75
2022/03/02 06:13:17;;;;;;;11.85;6.20;;;2.50;1.00;;;;;;5055935;28;20174;-74
2022/03/02 06:15:43;;;;;;;15.40;7.20;;;2.50;1.00;;;;;;5052942;28;20530;-74
2022/03/02 06:18:09;;;;;;;10.20;6.53;;;2.60;1.00;;;;;;5053108;28;20430;-74
2022/03/02 06:20:36;;;;;;;12.15;7.30;;;2.60;1.00;;;;;;5052873;28;20171;-74
2022/03/02 06:23:02;;;;;;;13.55;7.22;;;2.60;1.00;;;;;;5053621;28;20585;-74
2022/03/02 06:25:29;;;;;;;13.68;7.55;;;2.60;1.00;;;;;;5052896;28;20594;-74
2022/03/02 06:27:55;;;;;;;11.93;6.28;;;2.60;1.00;;;;;;5053099;28;20217;-75
2022/03/02 06:30:21;;;;;;;15.73;7.67;;;2.60;1.00;;;;;;5051275;28;20172;-74
2022/03/02 06:32:47;;;;;;;13.57;7.50;;;2.70;1.00;;;;;;5052898;28;20227;-74
2022/03/02 06:35:12;;;;;;;10.73;7.10;;;2.70;1.00;;;;;;5051859;28;20171;-74
2022/03/02 06:37:40;;;;;;;10.97;6.73;;;2.70;1.00;;;;;;5042819;28;20437;-75
2022/03/02 06:40:16;;;;;;;15.38;7.57;;;2.80;1.00;;;;;;5065880;28;20636;-74
2022/03/02 06:42:59;;;;;;;13.50;7.70;;;2.80;1.00;;;;;;5047157;28;20212;-75
2022/03/02 06:45:46;;;;;;;15.55;7.85;;;2.80;1.00;;;;;;5063047;28;20168;-76
2022/03/02 06:48:18;;;;;;;12.73;7.63;;;2.90;1.00;;;;;;5056356;28;20171;-75
2022/03/02 06:50:45;;;;;;;10.32;7.40;;;2.90;1.00;;;;;;5054982;28;20267;-75
2022/03/02 06:53:13;;;;;;;13.60;7.32;;;2.90;1.00;;;;;;5056271;28;20516;-74
2022/03/02 06:55:41;;;;;;;13.88;7.43;;;3.00;1.00;;;;;;5055798;28;20176;-74
2022/03/02 06:58:10;;;;;;;11.00;7.30;;;3.00;1.00;;;;;;5059544;28;20187;-74
2022/03/02 07:00:40;;;;;;;12.20;7.70;;;3.10;1.00;;;;;;5053798;28;20237;-74
2022/03/02 07:03:11;;;;;;;15.35;7.30;;;3.20;1.00;;;;;;5054580;28;20207;-74
2022/03/02 07:05:39;;;;;;;12.18;7.43;;;3.30;1.00;;;;;;5070755;28;20175;-75
2022/03/02 07:08:09;;;;;;;11.13;5.95;;;3.30;1.00;;;;;;5058477;28;20243;-75
2022/03/02 07:10:39;;;;;;;10.95;5.32;;;3.30;1.00;;;;;;5055789;28;20595;-75
2022/03/02 07:13:09;;;;;;;6.88;5.10;;;3.40;1.00;;;;;;5055194;28;20677;-75
2022/03/02 07:15:47;;;;;;;8.82;5.07;;;3.40;1.00;;;;;;5054355;28;20191;-74
2022/03/02 07:18:14;;;;;;;9.80;5.72;;;3.60;1.00;;;;;;5052536;28;20179;-74
2022/03/02 07:20:56;;;;;;;10.17;5.93;;;3.60;1.00;;;;;;5067433;28;20179;-74
2022/03/02 07:23:27;;;;;;;8.90;5.40;;;3.70;1.00;;;;;;5060345;28;20450;-75
2022/03/02 07:26:07;;;;;;;13.93;6.03;;;3.80;1.00;;;;;;5047551;28;20425;-74
2022/03/02 07:28:38;;;;;;;9.77;5.40;;;3.80;1.00;;;;;;5055493;28;20428;-75
2022/03/02 07:31:07;;;;;;;9.23;5.20;;;3.90;1.00;;;;;;5044808;28;20259;-75
2022/03/02 07:33:36;;;;;;;10.77;5.87;;;7.10;1.00;;;;;;5057323;28;20432;-75
2022/03/02 07:36:02;;;;;;;9.53;5.77;;;4.00;1.00;;;;;;5053869;28;20514;-74
2022/03/02 07:38:30;;;;;;;12.57;5.63;;;4.10;1.00;;;;;;5060120;28;20420;-74
2022/03/02 07:40:56;;;;;;;8.30;4.93;;;4.10;1.00;;;;;;5064243;28;20475;-74
2022/03/02 07:43:22;;;;;;;9.25;5.85;;;4.40;1.00;;;;;;5066673;28;20449;-74
2022/03/02 07:45:48;;;;;;;10.67;5.83;;;4.80;1.00;;;;;;5049473;28;20256;-74
2022/03/02 07:48:14;;;;;;;11.67;5.13;;;4.40;1.00;;;;;;5055185;28;20525;-74
2022/03/02 07:50:40;;;;;;;10.50;6.00;;;4.60;1.00;;;;;;5059438;28;20423;-74
2022/03/02 07:53:07;;;;;;;9.80;5.77;;;4.70;1.00;;;;;;5052275;28;20593;-74
2022/03/02 07:55:33;;;;;;;10.90;5.73;;;4.80;1.00;;;;;;5053378;28;20441;-74
2022/03/02 07:58:03;;;;;;;13.53;5.00;;;4.90;1.00;;;;;;5055967;28;20961;-74
2022/03/02 08:00:29;;;;;;;13.30;6.00;;;5.00;1.00;;;;;;5067888;28;20470;-74
2022/03/02 08:02:58;;;;;;;17.73;5.80;;;5.10;1.00;;;;;;5059936;28;20456;-74
2022/03/02 08:05:24;;;;;;;14.37;5.90;;;6.60;1.00;;;;;;5054071;28;20434;-74
2022/03/02 08:07:49;;;;;;;15.30;6.63;;;5.20;1.00;;;;;;5066354;28;20428;-74
2022/03/02 08:10:16;;;;;;;14.37;6.50;;;5.30;1.00;;;;;;5068035;28;20429;-74
2022/03/02 08:12:45;;;;;;;14.73;5.60;;;;;;;;;;5066874;28;20175;-74
2022/03/02 08:15:11;;;;;;;9.80;5.93;;;5.50;1.00;;;;;;5053334;28;20454;-74
2022/03/02 08:17:37;;;;;;;14.33;6.67;;;5.50;1.00;;;;;;5067677;28;20837;-75
2022/03/02 08:20:05;;;;;;;12.10;6.70;;;5.50;1.00;;;;;;5060487;28;20495;-74
2022/03/02 08:22:31;;;;;;;8.60;5.47;;;5.50;1.00;;;;;;5050256;28;20452;-75
2022/03/02 08:25:10;;;;;;;17.30;6.40;;;5.60;1.00;;;;;;5052883;28;20422;-75
2022/03/02 08:27:41;;;;;;;11.97;6.60;;;5.70;1.00;;;;;;5049818;28;20412;-75
2022/03/02 08:30:08;;;;;;;11.13;6.00;;;5.90;1.00;;;;;;5062144;28;20790;-75
2022/03/02 08:32:42;;;;;;;13.03;6.13;;;5.90;1.00;;;;;;5054090;28;20422;-75
2022/03/02 08:35:08;;;;;;;12.87;6.10;;;5.90;1.00;;;;;;5063090;28;20797;-75
2022/03/02 08:37:35;;;;;;;10.00;6.00;;;6.00;1.00;;;;;;5061085;28;20460;-74
2022/03/02 08:40:00;;;;;;;15.77;6.93;;;6.10;1.00;;;;;;5049582;28;20792;-76
2022/03/02 08:42:26;;;;;;;12.33;6.50;;;6.20;1.00;;;;;;5053401;28;20458;-75
2022/03/02 08:44:58;;;;;;;11.33;5.10;;;6.30;99.90;;;;;;5054158;28;20194;-74
2022/03/02 08:47:24;;;;;;;9.40;5.83;;;6.50;99.90;;;;;;5063820;28;20759;-74
2022/03/02 08:49:51;;;;;;;8.90;5.70;;;6.30;99.90;;;;;;5068519;28;20413;-74
2022/03/02 08:52:31;;;;;;;11.60;5.77;;;6.30;99.90;;;;;;5064012;28;20413;-74
2022/03/02 08:55:02;;;;;;;10.30;6.13;;;6.40;99.90;;;;;;5059630;28;21066;-74
2022/03/02 08:57:30;;;;;;;11.07;6.30;;;6.40;99.90;;;;;;5059070;28;20520;-74
2022/03/02 09:00:06;;;;;;;14.33;5.90;;;6.60;99.90;;;;;;5061320;28;20414;-74
2022/03/02 09:02:35;;;;;;;21.33;6.27;;;6.60;99.90;;;;;;5047210;28;20808;-74
2022/03/02 09:05:04;;;;;;;11.43;5.97;;;6.60;99.90;;;;;;5061644;28;20441;-74
2022/03/02 09:07:41;;;;;;;8.80;5.20;;;6.60;99.90;;;;;;5053398;28;20440;-74
2022/03/02 09:10:07;;;;;;;14.33;5.60;;;6.60;99.90;;;;;;5053639;28;20739;-74
2022/03/02 09:12:33;;;;;;;11.50;5.80;;;6.60;99.90;;;;;;5053551;28;20430;-74
2022/03/02 09:15:04;;;;;;;11.67;5.60;;;6.60;99.90;;;;;;5049581;28;20442;-75
2022/03/02 09:17:35;;;;;;;13.40;6.17;;;6.50;99.90;;;;;;5071864;28;20416;-74
2022/03/02 09:20:05;;;;;;;14.27;6.33;;;6.50;99.90;;;;;;5059241;28;20460;-75
2022/03/02 09:22:32;;;;;;;9.87;5.63;;;6.50;99.90;;;;;;5054813;28;20946;-75
2022/03/02 09:25:06;;;;;;;21.33;6.53;;;6.80;99.90;;;;;;5052200;28;20521;-78
2022/03/02 09:27:46;;;;;;;17.90;6.23;;;6.80;99.90;;;;;;5053773;28;20751;-74
2022/03/02 09:30:33;;;;;;;10.47;6.07;;;7.00;99.90;;;;;;5042299;28;20421;-77
2022/03/02 09:33:08;;;;;;;10.70;5.90;;;7.00;99.90;;;;;;5052695;28;20472;-75
2022/03/02 09:35:54;;;;;;;15.03;6.10;;;7.10;99.90;;;;;;5065259;28;20420;-77
2022/03/02 09:38:22;;;;;;;9.80;6.03;;;7.30;99.90;;;;;;5067131;28;20854;-76
2022/03/02 09:40:50;;;;;;;9.43;6.30;;;7.50;99.90;;;;;;5065682;28;20409;-73
2022/03/02 09:43:25;;;;;;;13.10;7.13;;;7.60;99.90;;;;;;5066265;28;20459;-77
2022/03/02 09:46:01;;;;;;;11.10;6.60;;;7.40;99.90;;;;;;5073374;28;20446;-75
2022/03/02 09:48:40;;;;;;;9.93;6.40;;;7.40;99.90;;;;;;5089731;28;20495;-75
2022/03/02 09:51:09;;;;;;;9.10;5.83;;;7.40;99.90;;;;;;5053038;28;20784;-77
2022/03/02 09:53:36;;;;;;;13.50;6.40;;;7.60;99.90;;;;;;5066617;28;20409;-74
2022/03/02 09:56:06;;;;;;;13.50;6.43;;;7.60;99.90;;;;;;5053381;28;20512;-75
2022/03/02 09:58:38;;;;;;;9.03;5.77;;;7.50;99.90;;;;;;5057151;28;20471;-75
2022/03/02 10:01:08;;;;;;;11.07;5.90;;;7.80;99.90;;;;;;5052879;28;20832;-76
2022/03/02 10:03:42;;;;;;;13.73;6.70;;;9.00;99.90;;;;;;5052871;28;20462;-76
2022/03/02 10:06:08;;;;;;;11.07;6.50;;;8.00;99.90;;;;;;5051447;28;20956;-73
2022/03/02 10:08:35;;;;;;;11.53;6.57;;;7.90;99.90;;;;;;5053425;28;20418;-73
2022/03/02 10:11:06;;;;;;;15.90;6.60;;;7.90;99.90;;;;;;5053010;28;20179;-72
2022/03/02 10:13:33;;;;;;;19.43;6.23;;;7.70;99.90;;;;;;5059074;28;20778;-74
2022/03/02 10:16:03;;;;;;;18.47;6.90;;;8.00;99.90;;;;;;5051657;28;20951;-74
2022/03/02 10:18:34;;;;;;;12.70;6.53;;;9.40;99.90;;;;;;5055230;28;20479;-74
2022/03/02 10:21:02;;;;;;;8.77;6.23;;;8.80;99.90;;;;;;5056094;28;20422;-74
2022/03/02 10:23:36;;;;;;;11.50;6.77;;;8.20;99.90;;;;;;5067477;28;20800;-74
2022/03/02 10:26:04;;;;;;;11.80;6.70;;;8.10;99.90;;;;;;5064588;28;20509;-74
2022/03/02 10:28:35;;;;;;;14.80;6.00;;;8.10;99.90;;;;;;5055594;28;20464;-74
2022/03/02 10:31:21;;;;;;;20.90;6.53;;;8.80;99.90;;;;;;5057993;28;20432;-74
2022/03/02 10:34:14;;;;;;;11.17;6.83;;;7.90;99.90;;;;;;5062780;28;20508;-74
2022/03/02 10:36:44;;;;;;;10.47;6.00;;;8.00;99.90;;;;;;5064543;28;20470;-74
2022/03/02 10:39:24;;;;;;;10.10;6.20;;;8.10;99.90;;;;;;5042182;28;20961;-75
2022/03/02 10:41:51;;;;;;;14.20;7.17;;;8.10;99.90;;;;;;5064584;28;20936;-74
2022/03/02 10:44:42;;;;;;;13.43;6.53;;;7.90;99.90;;;;;;5062766;28;20460;-74
2022/03/02 10:47:14;;;;;;;11.90;6.60;;;8.10;99.90;;;;;;5048639;28;20495;-75
2022/03/02 10:49:43;;;;;;;13.17;6.43;;;7.90;99.90;;;;;;5062027;28;20413;-74
2022/03/02 10:52:14;;;;;;;9.63;6.03;;;8.00;99.90;;;;;;5075416;28;20402;-74
2022/03/02 10:54:41;;;;;;;11.87;6.70;;;8.00;99.90;;;;;;5071495;28;20418;-74
2022/03/02 10:57:11;;;;;;;11.50;6.17;;;8.00;99.90;;;;;;5054795;28;20576;-74
2022/03/02 10:59:42;;;;;;;14.50;6.93;;;8.30;99.90;;;;;;5072519;28;20401;-74
2022/03/02 11:02:10;;;;;;;12.17;6.50;;;7.80;99.90;;;;;;5067796;28;20417;-74
2022/03/02 11:04:38;;;;;;;10.83;6.30;;;8.40;99.90;;;;;;5071795;28;20455;-74
2022/03/02 11:07:04;;;;;;;12.20;6.40;;;7.70;99.90;;;;;;5075092;28;20920;-74
2022/03/02 11:09:33;;;;;;;13.07;6.50;;;7.60;99.90;;;;;;5059634;28;20429;-74
2022/03/02 11:12:01;;;;;;;10.80;5.77;;;7.70;99.90;;;;;;5064889;28;20426;-74
2022/03/02 11:14:27;;;;;;;11.33;5.93;;;7.20;99.90;;;;;;5060636;28;20956;-74
2022/03/02 11:17:13;;;;;;;10.47;6.20;;;7.20;99.90;;;;;;5074946;28;20409;-74
2022/03/02 11:19:45;;;;;;;12.33;6.37;;;7.20;99.90;;;;;;5066368;28;20440;-74
2022/03/02 11:22:20;;;;;;;12.60;5.90;;;7.00;99.90;;;;;;5060740;28;20426;-74
2022/03/02 11:24:47;;;;;;;11.10;6.37;;;7.00;99.90;;;;;;5060613;28;20504;-74
2022/03/02 11:27:26;;;;;;;9.97;5.93;;;7.50;99.90;;;;;;5056052;28;20422;-74
2022/03/02 11:30:11;;;;;;;13.53;5.80;;;7.00;99.90;;;;;;5056269;28;20429;-75
2022/03/02 11:32:45;;;;;;;10.30;6.10;;;7.10;99.90;;;;;;5054309;28;20936;-75
2022/03/02 11:35:19;;;;;;;10.20;6.13;;;7.00;99.90;;;;;;5068721;28;20432;-74
2022/03/02 11:37:57;;;;;;;9.10;5.50;;;7.30;99.90;;;;;;5057438;28;20514;-74
2022/03/02 11:40:38;;;;;;;7.90;5.60;;;9.20;99.90;;;;;;5055073;28;20436;-75
2022/03/02 11:43:22;;;;;;;10.30;5.87;;;7.40;99.90;;;;;;5055334;28;20481;-74
2022/03/02 11:46:00;;;;;;;9.70;5.20;;;7.60;99.90;;;;;;5035575;28;20915;-75
2022/03/02 11:48:37;;;;;;;7.97;5.30;;;7.60;99.90;;;;;;5047355;28;20535;-74
2022/03/02 11:51:15;;;;;;;11.70;6.00;;;7.70;99.90;;;;;;5053762;28;20437;-74
2022/03/02 11:53:52;;;;;;;8.50;5.53;;;7.80;99.90;;;;;;5090845;28;20843;-75
2022/03/02 11:56:20;;;;;;;9.57;5.60;;;8.20;99.90;;;;;;5060319;28;20462;-75
2022/03/02 11:59:17;;;;;;;9.77;5.60;;;8.20;99.90;;;;;;5055034;28;20437;-74
2022/03/02 12:01:50;;;;;;;11.10;5.53;;;8.20;99.90;;;;;;5060712;28;20842;-75
2022/03/02 12:04:29;;;;;;;8.93;5.60;;;8.30;99.90;;;;;;5060905;28;20922;-74
2022/03/02 12:07:05;;;;;;;11.60;5.20;;;8.40;99.90;;;;;;5051603;28;20777;-74
2022/03/02 12:09:35;;;;;;;8.87;4.97;;;8.50;99.90;;;;;;5055107;28;20408;-75
2022/03/02 12:12:15;;;;;;;7.97;5.10;;;8.70;99.90;;;;;;5053018;28;20408;-74
2022/03/02 12:15:01;;;;;;;7.00;4.90;;;8.80;99.90;;;;;;5049840;28;20467;-75
2022/03/02 12:17:33;;;;;;;8.43;4.90;;;8.80;99.90;;;;;;5048606;28;20463;-75
2022/03/02 12:20:20;;;;;;;13.03;5.83;;;8.90;99.90;;;;;;5056634;28;20503;-74
2022/03/02 12:22:56;;;;;;;7.80;5.20;;;9.00;99.90;;;;;;5035817;28;20530;-74
2022/03/02 12:25:28;;;;;;;9.17;5.03;;;9.20;99.90;;;;;;5052597;28;20430;-73
2022/03/02 12:27:59;;;;;;;7.87;5.10;;;9.30;99.90;;;;;;5047729;28;20421;-74
2022/03/02 12:30:28;;;;;;;7.90;4.77;;;9.50;99.90;;;;;;5054882;28;20524;-74
2022/03/02 12:32:54;;;;;;;6.87;4.80;;;9.50;99.90;;;;;;5046122;28;20775;-74
2022/03/02 12:35:23;;;;;;;17.03;5.50;;;9.60;99.90;;;;;;5047424;28;20517;-75
2022/03/02 12:37:51;;;;;;;7.27;4.73;;;9.70;99.90;;;;;;5050274;28;20430;-74
2022/03/02 12:40:26;;;;;;;8.67;5.27;;;9.70;99.90;;;;;;5066479;28;20407;-74
2022/03/02 12:42:59;;;;;;;7.40;4.73;;;9.70;99.90;;;;;;5053017;28;20459;-74
2022/03/02 12:45:25;;;;;;;7.73;4.70;;;9.90;99.90;;;;;;5062371;28;20425;-74
2022/03/02 12:47:52;;;;;;;8.77;4.73;;;9.90;99.90;;;;;;5054195;28;20491;-74
2022/03/02 12:50:34;;;;;;;8.20;4.90;;;9.90;99.90;;;;;;5051992;28;20437;-74
2022/03/02 12:53:04;;;;;;;12.90;5.10;;;9.90;99.90;;;;;;5065729;28;20417;-74
2022/03/02 12:55:29;;;;;;;12.47;4.93;;;10.10;99.90;;;;;;5053995;28;20421;-74
2022/03/02 12:57:55;;;;;;;8.90;5.27;;;10.20;99.90;;;;;;5049613;28;20819;-74
2022/03/02 13:00:24;;;;;;;7.57;5.23;;;10.20;99.90;;;;;;5053601;28;20194;-73
2022/03/02 13:02:58;;;;;;;9.17;5.50;;;10.10;99.90;;;;;;5052971;28;20214;-73
2022/03/02 13:05:48;;;;;;;8.07;4.90;;;10.10;99.90;;;;;;5050893;28;20430;-73
2022/03/02 13:08:39;;;;;;;16.27;6.20;;;10.20;99.90;;;;;;5053234;28;20490;-73
2022/03/02 13:11:23;;;;;;;11.13;5.83;;;10.20;99.90;;;;;;5059452;28;20414;-73